AAL2857 KMIA-TNCC
Flight info
| Callsign | AAL2857 |
|---|---|
| Flight time | N/A |
| Altitude | 35000 |
| Route | GWAVA2 URSUS UP406 BILSI UL795 DIBOK DIBOK1B |
| Aircraft | A321/M-SDE3FGHIRWY/LB1 |
Departure
| Time | N/A |
|---|---|
| Airport | Miami International Airport (KMIA) |
Arrival
| Time | 2026-04-30 18:53 |
|---|---|
| Airport | Hato International Airport (TNCC) |
| Time | Latitude | Longitude | Altitude | Speed | Heading |
|---|---|---|---|---|---|
| 2026-04-30 17:39 | 18.55357 | -75.17205 | 35007 ft | 482 kts | 150° |
| 2026-04-30 17:42 | 18.27610 | -74.97615 | 34999 ft | 481 kts | 153° |
| 2026-04-30 17:43 | 18.13727 | -74.87826 | 34996 ft | 481 kts | 153° |
| 2026-04-30 17:44 | 17.97104 | -74.76122 | 34985 ft | 479 kts | 153° |
| 2026-04-30 17:47 | 17.75223 | -74.60755 | 34964 ft | 478 kts | 154° |
| 2026-04-30 17:48 | 17.55818 | -74.47185 | 34957 ft | 479 kts | 154° |
| 2026-04-30 17:50 | 17.33681 | -74.31722 | 34955 ft | 479 kts | 154° |
| 2026-04-30 17:52 | 17.17069 | -74.20158 | 34956 ft | 478 kts | 154° |
| 2026-04-30 17:54 | 16.92184 | -74.02861 | 34953 ft | 477 kts | 154° |
| 2026-04-30 17:56 | 16.70073 | -73.87566 | 34948 ft | 476 kts | 154° |
| 2026-04-30 17:58 | 16.53521 | -73.76123 | 34949 ft | 476 kts | 154° |
| 2026-04-30 18:00 | 16.32195 | -73.59632 | 34943 ft | 491 kts | 138° |
| 2026-04-30 18:01 | 16.20720 | -73.46477 | 34944 ft | 491 kts | 139° |
| 2026-04-30 18:02 | 16.06905 | -73.30714 | 34946 ft | 492 kts | 139° |
| 2026-04-30 18:04 | 15.93119 | -73.14990 | 34934 ft | 490 kts | 139° |
| 2026-04-30 18:06 | 15.74779 | -72.94154 | 34923 ft | 489 kts | 139° |
| 2026-04-30 18:08 | 15.58680 | -72.75908 | 34931 ft | 490 kts | 139° |
| 2026-04-30 18:10 | 15.41133 | -72.56063 | 34922 ft | 485 kts | 138° |
| 2026-04-30 18:11 | 15.25184 | -72.38090 | 34925 ft | 483 kts | 138° |
| 2026-04-30 18:13 | 15.13823 | -72.25290 | 34932 ft | 482 kts | 138° |
| 2026-04-30 18:14 | 15.02453 | -72.12541 | 34934 ft | 481 kts | 138° |
| 2026-04-30 18:15 | 14.88875 | -71.97302 | 34921 ft | 479 kts | 137° |
| 2026-04-30 18:16 | 14.79878 | -71.87213 | 34921 ft | 478 kts | 137° |
| 2026-04-30 18:17 | 14.75360 | -71.82171 | 34924 ft | 477 kts | 137° |
| 2026-04-30 18:18 | 14.68588 | -71.74616 | 34918 ft | 477 kts | 137° |
| 2026-04-30 18:18 | 14.64089 | -71.69597 | 34920 ft | 476 kts | 137° |
| 2026-04-30 18:19 | 14.59587 | -71.64564 | 34921 ft | 476 kts | 137° |
| 2026-04-30 18:19 | 14.55094 | -71.59547 | 34921 ft | 475 kts | 137° |
| 2026-04-30 18:20 | 14.50603 | -71.54544 | 34920 ft | 475 kts | 137° |
| 2026-04-30 18:20 | 14.46105 | -71.49544 | 34919 ft | 475 kts | 137° |
| 2026-04-30 18:21 | 14.41618 | -71.44550 | 34918 ft | 474 kts | 137° |
| 2026-04-30 18:21 | 14.37167 | -71.39595 | 34914 ft | 474 kts | 137° |
| 2026-04-30 18:22 | 14.32681 | -71.34604 | 34912 ft | 474 kts | 137° |
| 2026-04-30 18:22 | 14.25949 | -71.27117 | 34908 ft | 474 kts | 137° |
| 2026-04-30 18:23 | 14.21454 | -71.22127 | 34904 ft | 475 kts | 137° |
| 2026-04-30 18:23 | 14.16956 | -71.17149 | 34901 ft | 475 kts | 137° |
| 2026-04-30 18:24 | 14.10208 | -71.09674 | 34899 ft | 475 kts | 137° |
| 2026-04-30 18:25 | 14.05714 | -71.04693 | 34892 ft | 475 kts | 137° |
| 2026-04-30 18:25 | 13.98961 | -70.97224 | 34890 ft | 476 kts | 137° |
| 2026-04-30 18:26 | 13.92185 | -70.89741 | 34902 ft | 477 kts | 136° |
| 2026-04-30 18:27 | 13.85427 | -70.82274 | 34905 ft | 477 kts | 137° |
| 2026-04-30 18:28 | 13.78642 | -70.74782 | 34904 ft | 477 kts | 137° |
| 2026-04-30 18:28 | 13.71703 | -70.67453 | 34899 ft | 476 kts | 139° |
| 2026-04-30 18:29 | 13.62280 | -70.57839 | 34891 ft | 478 kts | 139° |
| 2026-04-30 18:30 | 13.52888 | -70.48134 | 34901 ft | 479 kts | 139° |
| 2026-04-30 18:31 | 13.45831 | -70.40857 | 34903 ft | 479 kts | 139° |
| 2026-04-30 18:32 | 13.38781 | -70.33588 | 34900 ft | 479 kts | 139° |
| 2026-04-30 18:33 | 13.31723 | -70.26323 | 34899 ft | 479 kts | 139° |
| 2026-04-30 18:33 | 13.26966 | -70.21435 | 33120 ft | 493 kts | 139° |
| 2026-04-30 18:33 | 13.24544 | -70.18945 | 32260 ft | 494 kts | 138° |
| 2026-04-30 18:34 | 13.22111 | -70.16444 | 31357 ft | 493 kts | 138° |
| 2026-04-30 18:34 | 13.17286 | -70.11481 | 29316 ft | 491 kts | 138° |
| 2026-04-30 18:34 | 13.14872 | -70.08999 | 28266 ft | 494 kts | 137° |
| 2026-04-30 18:35 | 13.12434 | -70.06497 | 27153 ft | 495 kts | 137° |
| 2026-04-30 18:35 | 13.10000 | -70.04002 | 25950 ft | 495 kts | 137° |
| 2026-04-30 18:35 | 13.07567 | -70.01510 | 25204 ft | 490 kts | 137° |
| 2026-04-30 18:36 | 13.02790 | -69.96624 | 23728 ft | 481 kts | 137° |
| 2026-04-30 18:36 | 13.00431 | -69.94206 | 22975 ft | 475 kts | 136° |
| 2026-04-30 18:36 | 12.95806 | -69.89466 | 21520 ft | 465 kts | 136° |
| 2026-04-30 18:37 | 12.93535 | -69.87135 | 20798 ft | 459 kts | 136° |
| 2026-04-30 18:37 | 12.91296 | -69.84835 | 20090 ft | 454 kts | 136° |
| 2026-04-30 18:37 | 12.89076 | -69.82561 | 19413 ft | 447 kts | 136° |
| 2026-04-30 18:37 | 12.86893 | -69.80334 | 18742 ft | 440 kts | 136° |
| 2026-04-30 18:38 | 12.84768 | -69.78167 | 18123 ft | 433 kts | 136° |
| 2026-04-30 18:38 | 12.82652 | -69.76001 | 17516 ft | 427 kts | 136° |
| 2026-04-30 18:38 | 12.80568 | -69.73866 | 16921 ft | 421 kts | 136° |
| 2026-04-30 18:38 | 12.78513 | -69.71760 | 16371 ft | 415 kts | 136° |
| 2026-04-30 18:39 | 12.76480 | -69.69684 | 15800 ft | 411 kts | 136° |
| 2026-04-30 18:39 | 12.74469 | -69.67627 | 15239 ft | 406 kts | 136° |
| 2026-04-30 18:39 | 12.72482 | -69.65595 | 14660 ft | 401 kts | 135° |
| 2026-04-30 18:39 | 12.70517 | -69.63587 | 14072 ft | 397 kts | 135° |
| 2026-04-30 18:40 | 12.68572 | -69.61604 | 13488 ft | 392 kts | 135° |
| 2026-04-30 18:40 | 12.66648 | -69.59643 | 12907 ft | 388 kts | 135° |
| 2026-04-30 18:40 | 12.64747 | -69.57712 | 12295 ft | 383 kts | 135° |
| 2026-04-30 18:40 | 12.62867 | -69.55797 | 11673 ft | 379 kts | 135° |
| 2026-04-30 18:41 | 12.61005 | -69.53898 | 11047 ft | 375 kts | 135° |
| 2026-04-30 18:41 | 12.59190 | -69.52046 | 10792 ft | 360 kts | 135° |
| 2026-04-30 18:41 | 12.57459 | -69.50281 | 10672 ft | 343 kts | 135° |
| 2026-04-30 18:41 | 12.55807 | -69.48596 | 10547 ft | 328 kts | 135° |
| 2026-04-30 18:42 | 12.54227 | -69.46983 | 10426 ft | 314 kts | 135° |
| 2026-04-30 18:42 | 12.51255 | -69.43946 | 10116 ft | 291 kts | 135° |
| 2026-04-30 18:42 | 12.49837 | -69.42505 | 10015 ft | 286 kts | 135° |
| 2026-04-30 18:45 | 12.35969 | -69.28370 | 6013 ft | 272 kts | 134° |
| 2026-04-30 18:45 | 12.34644 | -69.27023 | 5566 ft | 266 kts | 134° |
| 2026-04-30 18:45 | 12.33355 | -69.25713 | 5146 ft | 265 kts | 134° |
| 2026-04-30 18:46 | 12.32061 | -69.24391 | 4717 ft | 261 kts | 133° |
| 2026-04-30 18:46 | 12.30780 | -69.23085 | 4296 ft | 259 kts | 133° |
| 2026-04-30 18:46 | 12.29516 | -69.21801 | 3947 ft | 254 kts | 133° |
| 2026-04-30 18:46 | 12.28293 | -69.20572 | 3887 ft | 239 kts | 133° |
| 2026-04-30 18:47 | 12.27140 | -69.19403 | 3807 ft | 226 kts | 133° |
| 2026-04-30 18:47 | 12.26063 | -69.18314 | 3721 ft | 213 kts | 133° |
| 2026-04-30 18:47 | 12.25019 | -69.17256 | 3622 ft | 210 kts | 132° |
| 2026-04-30 18:47 | 12.23987 | -69.16205 | 3541 ft | 205 kts | 131° |
| 2026-04-30 18:48 | 12.23119 | -69.15167 | 3469 ft | 181 kts | 118° |
| 2026-04-30 18:48 | 12.22683 | -69.14003 | 3351 ft | 173 kts | 102° |
| 2026-04-30 18:48 | 12.22432 | -69.12797 | 3152 ft | 173 kts | 101° |
| 2026-04-30 18:48 | 12.22181 | -69.11598 | 2928 ft | 172 kts | 102° |
| 2026-04-30 18:49 | 12.21932 | -69.10414 | 2704 ft | 169 kts | 101° |
| 2026-04-30 18:49 | 12.21684 | -69.09232 | 2474 ft | 171 kts | 102° |
| 2026-04-30 18:49 | 12.21434 | -69.08046 | 2250 ft | 170 kts | 101° |
| 2026-04-30 18:49 | 12.21186 | -69.06867 | 2024 ft | 167 kts | 100° |
| 2026-04-30 18:50 | 12.20951 | -69.05749 | 1803 ft | 155 kts | 101° |
| 2026-04-30 18:50 | 12.20730 | -69.04708 | 1622 ft | 146 kts | 100° |
| 2026-04-30 18:50 | 12.20526 | -69.03735 | 1432 ft | 139 kts | 101° |
| 2026-04-30 18:50 | 12.20326 | -69.02782 | 1245 ft | 135 kts | 101° |
| 2026-04-30 18:51 | 12.20128 | -69.01845 | 1063 ft | 134 kts | 102° |
| 2026-04-30 18:51 | 12.19932 | -69.00910 | 881 ft | 134 kts | 101° |
| 2026-04-30 18:51 | 12.19733 | -68.99980 | 695 ft | 134 kts | 101° |
| 2026-04-30 18:51 | 12.19537 | -68.99052 | 507 ft | 133 kts | 101° |
| 2026-04-30 18:52 | 12.19342 | -68.98118 | 318 ft | 135 kts | 101° |
| 2026-04-30 18:52 | 12.19149 | -68.97174 | 145 ft | 135 kts | 101° |
| 2026-04-30 18:52 | 12.18954 | -68.96246 | 30 ft | 123 kts | 102° |
| 2026-04-30 18:52 | 12.18803 | -68.95549 | 27 ft | 76 kts | 102° |
| 2026-04-30 18:53 | 12.18724 | -68.95173 | 27 ft | 43 kts | 102° |
| 2026-04-30 18:53 | 12.18665 | -68.94896 | 31 ft | 37 kts | 102° |
| 2026-04-30 18:53 | 12.18612 | -68.94649 | 32 ft | 34 kts | 102° |
| 2026-04-30 18:53 | 12.18559 | -68.94482 | 31 ft | 17 kts | 138° |
| 2026-04-30 18:54 | 12.18445 | -68.94482 | 30 ft | 18 kts | 200° |
| 2026-04-30 18:54 | 12.18419 | -68.94588 | 30 ft | 18 kts | 281° |
| 2026-04-30 18:54 | 12.18446 | -68.94715 | 30 ft | 19 kts | 282° |
| 2026-04-30 18:54 | 12.18475 | -68.94852 | 29 ft | 21 kts | 282° |
| 2026-04-30 18:55 | 12.18508 | -68.95002 | 29 ft | 22 kts | 282° |
| 2026-04-30 18:55 | 12.18579 | -68.95329 | 28 ft | 24 kts | 283° |
| 2026-04-30 18:55 | 12.18605 | -68.95464 | 28 ft | 14 kts | 278° |
| 2026-04-30 18:56 | 12.18560 | -68.95557 | 28 ft | 9 kts | 189° |
| 2026-04-30 18:56 | 12.18538 | -68.95563 | 28 ft | 0 kts | 199° |